If you wish to contribute or participate in the discussions about articles you are invited to join SKYbrary as a registered user

 Actions

Kadena Air Base

From SKYbrary Wiki

RODN /
Revision as of 21:42, 25 June 2020 by Admin (talk | contribs) (Text replacement - "===test===" to "")
(diff) ← Older revision | Latest revision (diff) | Newer revision → (diff)
Airport
ICAO: RODN – IATA: DNA
Summary
Name Kadena Air Base
Region Asia and Pacific
Territory Japan JP.gif
Location Kadena, Okinawa
Serving Kadena
Elevation 44.501 m <br />146 ft <br />146 ft44.501 m <br />
Type large airport
Coordinates 26° 21' 20.20" N, 127° 46' 3.48" E
Runways
Designator Length Width Surface ROPS
05L/23R 3688 m12,099.738 ft <br /> 91 m298.556 ft <br /> ASP yes/yes
05R/23L 3688 m12,099.738 ft <br /> 61 m200.131 ft <br /> CON yes/yes


METAR
Observation RODN 252226Z AUTO 14007KT 10SM BKN010 BKN015 OVC045 28/26 A2950 RMK AO2 SLP994 $
Station Kadena Ab
Date/Time 25 July 2021 22:26:00
Wind direction 140°
Wind speed 07 kts
Lowest cloud amount broken clouds
Temperature 28°C
Dew point 26°C
Humidity 88%
QNH hPa
Weather condition n/a